createdAt,value
2023-05-06T00:00:51.269Z,34.81
2023-05-06T00:02:52.847Z,34.73
2023-05-06T00:04:54.346Z,34.71
2023-05-06T00:06:57.273Z,34.79
2023-05-06T00:08:59.040Z,34.60
2023-05-06T00:11:00.594Z,34.51
2023-05-06T00:13:02.210Z,34.56
2023-05-06T00:15:04.084Z,34.85
2023-05-06T00:17:05.771Z,34.85
2023-05-06T00:19:07.533Z,34.94
2023-05-06T00:21:09.001Z,34.84
2023-05-06T00:23:11.024Z,34.54
2023-05-06T00:25:12.576Z,34.48
2023-05-06T00:27:14.209Z,34.84
2023-05-06T00:29:16.007Z,34.59
2023-05-06T00:31:17.573Z,34.47
2023-05-06T00:33:19.098Z,34.46
2023-05-06T00:35:20.663Z,34.41
2023-05-06T00:37:22.321Z,34.59
2023-05-06T00:39:24.426Z,34.40
2023-05-06T00:41:26.219Z,34.83
2023-05-06T00:43:27.715Z,34.47
2023-05-06T00:45:29.147Z,34.50
2023-05-06T00:47:30.948Z,34.64
2023-05-06T00:49:32.479Z,34.81
2023-05-06T00:51:34.052Z,34.59
2023-05-06T00:53:35.837Z,34.29
2023-05-06T00:55:38.032Z,34.64
2023-05-06T00:57:40.221Z,34.62
2023-05-06T00:59:42.254Z,34.48
2023-05-06T01:01:43.757Z,34.58
2023-05-06T01:03:45.340Z,34.82
2023-05-06T01:06:07.620Z,34.47
2023-05-06T01:08:21.428Z,34.36
2023-05-06T01:10:22.947Z,34.40
2023-05-06T01:12:29.199Z,34.67
2023-05-06T01:14:30.827Z,34.31
2023-05-06T01:16:34.866Z,34.34
2023-05-06T01:18:38.403Z,34.26
2023-05-06T01:20:41.992Z,34.23
2023-05-06T01:22:44.232Z,34.61
2023-05-06T01:24:46.756Z,34.58
2023-05-06T01:26:48.252Z,34.53
2023-05-06T01:28:50.036Z,34.17
2023-05-06T01:31:09.029Z,34.23
2023-05-06T01:33:27.177Z,34.53
2023-05-06T01:35:31.766Z,34.16
2023-05-06T01:37:39.100Z,34.29
2023-05-06T01:39:41.555Z,34.49
2023-05-06T01:41:43.829Z,34.50
2023-05-06T01:43:47.377Z,34.41
2023-05-06T01:45:53.254Z,34.35
2023-05-06T01:47:55.663Z,34.11
2023-05-06T01:49:57.826Z,34.32
2023-05-06T01:51:59.284Z,33.99
2023-05-06T01:54:01.276Z,34.33
2023-05-06T01:56:02.932Z,34.10
2023-05-06T01:58:04.478Z,34.41
2023-05-06T02:00:08.066Z,34.11
2023-05-06T02:02:09.643Z,34.35
2023-05-06T02:04:11.249Z,34.11
2023-05-06T02:06:12.717Z,34.37
2023-05-06T02:08:14.194Z,34.17
2023-05-06T02:10:15.759Z,34.25
2023-05-06T02:12:17.231Z,34.20
2023-05-06T02:14:18.683Z,34.06
2023-05-06T02:16:21.822Z,34.11
2023-05-06T02:18:23.492Z,34.08
2023-05-06T02:20:24.958Z,34.29
2023-05-06T02:22:26.403Z,34.04
2023-05-06T02:24:27.888Z,33.93
2023-05-06T02:26:29.295Z,33.96
2023-05-06T02:28:30.685Z,34.21
2023-05-06T02:30:32.330Z,33.91
2023-05-06T02:32:33.885Z,34.00
2023-05-06T02:34:35.351Z,34.39
2023-05-06T02:36:36.793Z,34.21
2023-05-06T02:38:38.309Z,33.89
2023-05-06T02:40:39.748Z,33.93
2023-05-06T02:42:41.263Z,34.32
2023-05-06T02:44:42.890Z,33.96
2023-05-06T02:46:44.339Z,33.89
2023-05-06T02:48:46.451Z,34.12
2023-05-06T02:50:47.985Z,34.08
2023-05-06T02:52:49.516Z,34.19
2023-05-06T02:54:52.676Z,34.21
2023-05-06T02:56:54.248Z,34.19
2023-05-06T02:58:55.716Z,33.97
2023-05-06T03:00:57.135Z,34.25
2023-05-06T03:02:58.658Z,33.82
2023-05-06T03:05:00.167Z,33.87
2023-05-06T03:07:01.602Z,34.20
2023-05-06T03:09:03.218Z,33.74
2023-05-06T03:11:05.835Z,33.86
2023-05-06T03:13:08.809Z,34.03
2023-05-06T03:15:11.139Z,33.98
2023-05-06T03:17:13.179Z,34.16
2023-05-06T03:19:14.760Z,33.96
2023-05-06T03:21:16.315Z,34.15
2023-05-06T03:23:17.800Z,33.83
2023-05-06T03:25:19.175Z,33.89
2023-05-06T03:27:20.678Z,33.81
2023-05-06T03:29:22.267Z,33.97
2023-05-06T03:31:23.803Z,34.17
2023-05-06T03:33:25.795Z,34.13
2023-05-06T03:35:27.649Z,34.06
2023-05-06T03:37:30.550Z,33.94
2023-05-06T03:39:32.263Z,34.18
2023-05-06T03:41:33.855Z,33.87
2023-05-06T03:43:36.067Z,34.14
2023-05-06T03:45:37.929Z,34.09
2023-05-06T03:47:39.444Z,33.97
2023-05-06T03:49:41.117Z,34.12
2023-05-06T03:51:42.616Z,34.12
2023-05-06T03:53:44.037Z,34.04
2023-05-06T03:55:45.582Z,33.77
2023-05-06T03:57:47.038Z,33.74
2023-05-06T03:59:48.487Z,33.81
2023-05-06T04:01:51.130Z,34.04
2023-05-06T04:03:54.418Z,34.09
2023-05-06T04:05:55.969Z,33.80
2023-05-06T04:07:57.396Z,33.75
2023-05-06T04:09:58.925Z,33.66
2023-05-06T04:12:00.372Z,34.00
2023-05-06T04:14:01.889Z,33.76
2023-05-06T04:16:04.171Z,33.93
2023-05-06T04:18:07.962Z,33.97
2023-05-06T04:20:11.366Z,34.09
2023-05-06T04:22:13.006Z,33.97
2023-05-06T04:24:16.311Z,34.12
2023-05-06T04:26:17.786Z,33.63
2023-05-06T04:28:19.231Z,33.97
2023-05-06T04:30:21.303Z,34.03
2023-05-06T04:32:25.329Z,33.80
2023-05-06T04:34:27.879Z,33.88
2023-05-06T04:36:29.439Z,34.01
2023-05-06T04:38:32.095Z,33.58
2023-05-06T04:40:35.248Z,33.82
2023-05-06T04:42:36.948Z,33.94
2023-05-06T04:44:38.372Z,33.90
2023-05-06T04:46:39.954Z,34.01
2023-05-06T04:48:41.567Z,34.12
2023-05-06T04:50:43.124Z,33.73
2023-05-06T04:52:44.586Z,33.69
2023-05-06T04:54:46.202Z,33.62
2023-05-06T04:56:47.656Z,33.75
2023-05-06T04:58:49.147Z,33.69
2023-05-06T05:00:50.803Z,33.58
2023-05-06T05:02:52.838Z,33.71
2023-05-06T05:04:54.381Z,33.70
2023-05-06T05:06:55.851Z,33.92
2023-05-06T05:08:58.739Z,34.08
2023-05-06T05:11:00.964Z,33.91
2023-05-06T05:13:02.871Z,33.65
2023-05-06T05:15:04.618Z,33.83
2023-05-06T05:17:06.153Z,33.88
2023-05-06T05:19:09.232Z,33.78
2023-05-06T05:21:11.116Z,33.76
2023-05-06T05:23:12.746Z,33.65
2023-05-06T05:25:14.620Z,33.92
2023-05-06T05:27:16.291Z,33.89
2023-05-06T05:29:18.211Z,33.87
2023-05-06T05:31:19.701Z,33.60
2023-05-06T05:33:21.409Z,33.58
2023-05-06T05:35:23.039Z,33.80
2023-05-06T05:37:24.652Z,33.91
2023-05-06T05:39:26.079Z,33.86
2023-05-06T05:41:27.666Z,33.84
2023-05-06T05:43:29.283Z,33.78
2023-05-06T05:45:30.934Z,33.95
2023-05-06T05:47:32.493Z,33.85
2023-05-06T05:49:34.215Z,33.98
2023-05-06T05:51:35.900Z,33.93
2023-05-06T05:53:37.855Z,33.58
2023-05-06T05:55:39.257Z,33.58
2023-05-06T05:57:40.833Z,33.67
2023-05-06T05:59:42.283Z,33.89
2023-05-06T06:01:43.907Z,33.72
2023-05-06T06:03:45.820Z,33.83
2023-05-06T06:05:49.231Z,33.73
2023-05-06T06:07:50.905Z,33.72
2023-05-06T06:09:52.361Z,33.59
2023-05-06T06:11:54.241Z,33.97
2023-05-06T06:13:55.746Z,33.80
2023-05-06T06:15:57.610Z,33.48
2023-05-06T06:17:59.178Z,33.67
2023-05-06T06:20:01.231Z,33.59
2023-05-06T06:22:02.755Z,33.59
2023-05-06T06:24:04.704Z,33.44
2023-05-06T06:26:06.449Z,33.47
2023-05-06T06:28:08.122Z,33.53
2023-05-06T06:30:09.952Z,33.69
2023-05-06T06:32:11.713Z,33.43
2023-05-06T06:34:13.356Z,33.53
2023-05-06T06:36:14.826Z,33.59
2023-05-06T06:38:16.368Z,33.53
2023-05-06T06:40:17.829Z,33.69
2023-05-06T06:42:19.246Z,33.83
2023-05-06T06:44:20.753Z,33.87
2023-05-06T06:46:22.193Z,33.86
2023-05-06T06:48:23.864Z,33.58
2023-05-06T06:50:25.547Z,33.54
2023-05-06T06:52:27.223Z,33.78
2023-05-06T06:54:28.752Z,33.79
2023-05-06T06:56:31.838Z,33.77
2023-05-06T06:58:33.413Z,33.57
2023-05-06T07:00:34.933Z,33.40
2023-05-06T07:02:36.446Z,33.70
2023-05-06T07:04:38.083Z,33.57
2023-05-06T07:06:39.630Z,33.59
2023-05-06T07:08:41.200Z,33.55
2023-05-06T07:10:42.687Z,33.57
2023-05-06T07:12:44.176Z,33.77
2023-05-06T07:14:45.649Z,33.79
2023-05-06T07:16:48.746Z,33.67
2023-05-06T07:18:53.794Z,33.64
2023-05-06T07:20:55.344Z,33.48
2023-05-06T07:22:56.844Z,33.43
2023-05-06T07:24:58.461Z,33.76
2023-05-06T07:27:01.179Z,33.42
2023-05-06T07:29:04.111Z,33.63
2023-05-06T07:31:05.691Z,33.52
2023-05-06T07:33:07.729Z,33.42
2023-05-06T07:35:09.586Z,33.78
2023-05-06T07:37:11.264Z,33.46
2023-05-06T07:39:13.943Z,33.33
2023-05-06T07:41:15.495Z,33.29
2023-05-06T07:43:17.188Z,33.57
2023-05-06T07:45:19.726Z,33.68
2023-05-06T07:47:28.457Z,33.65
2023-05-06T07:49:33.165Z,33.76
2023-05-06T07:51:35.038Z,33.39
2023-05-06T07:53:38.098Z,33.51
2023-05-06T07:55:39.657Z,33.28
2023-05-06T07:57:41.179Z,33.28
2023-05-06T07:59:52.229Z,33.78
2023-05-06T08:01:53.879Z,33.35
2023-05-06T08:03:55.417Z,33.58
2023-05-06T08:05:56.893Z,33.52
2023-05-06T08:08:01.167Z,33.42
2023-05-06T08:10:03.086Z,33.42
2023-05-06T08:12:04.620Z,33.33
2023-05-06T08:14:06.217Z,33.57
2023-05-06T08:16:07.834Z,33.39
2023-05-06T08:18:21.068Z,33.63
2023-05-06T08:20:24.126Z,33.29
2023-05-06T08:22:25.972Z,33.61
2023-05-06T08:24:28.046Z,33.33
2023-05-06T08:26:29.486Z,33.78
2023-05-06T08:28:31.588Z,33.59
2023-05-06T08:30:33.117Z,33.42
2023-05-06T08:32:34.640Z,33.52
2023-05-06T08:34:36.428Z,33.51
2023-05-06T08:36:37.948Z,33.49
2023-05-06T08:38:39.555Z,33.25
2023-05-06T08:40:44.637Z,33.24
2023-05-06T08:42:47.717Z,33.26
2023-05-06T08:44:51.753Z,33.31
2023-05-06T08:46:53.443Z,33.27
2023-05-06T08:48:54.898Z,33.19
2023-05-06T08:50:57.433Z,33.55
2023-05-06T08:53:00.758Z,33.30
2023-05-06T08:55:04.986Z,33.25
2023-05-06T08:57:10.919Z,33.22
2023-05-06T08:59:17.759Z,33.11
2023-05-06T09:01:19.403Z,33.21
2023-05-06T09:03:21.166Z,33.17
2023-05-06T09:05:22.967Z,33.29
2023-05-06T09:07:24.697Z,33.33
2023-05-06T09:09:26.282Z,33.14
2023-05-06T09:11:29.441Z,33.50
2023-05-06T09:13:31.100Z,33.38
2023-05-06T09:15:42.254Z,33.13
2023-05-06T09:17:43.693Z,33.36
2023-05-06T09:19:45.341Z,33.12
2023-05-06T09:21:48.003Z,33.58
2023-05-06T09:23:49.563Z,33.27
2023-05-06T09:25:51.240Z,33.37
2023-05-06T09:28:02.749Z,33.91
2023-05-06T09:30:08.118Z,33.63
2023-05-06T09:32:11.518Z,34.09
2023-05-06T09:34:13.473Z,33.94
2023-05-06T09:36:15.392Z,34.19
2023-05-06T09:38:17.191Z,34.06
2023-05-06T09:40:19.061Z,34.31
2023-05-06T09:42:22.292Z,34.25
2023-05-06T09:44:24.457Z,34.42
2023-05-06T09:46:27.505Z,34.32
2023-05-06T09:48:32.206Z,34.49
2023-05-06T09:50:33.704Z,34.51
2023-05-06T09:52:35.696Z,34.48
2023-05-06T09:54:37.325Z,34.67
2023-05-06T09:56:39.073Z,34.72
2023-05-06T09:58:40.978Z,34.85
2023-05-06T10:00:43.720Z,34.49
2023-05-06T10:02:45.810Z,34.68
2023-05-06T10:04:49.081Z,34.52
2023-05-06T10:06:51.863Z,34.44
2023-05-06T10:08:54.703Z,34.59
2023-05-06T10:10:56.974Z,34.71
2023-05-06T10:12:58.566Z,34.86
2023-05-06T10:15:00.452Z,34.91
2023-05-06T10:17:02.858Z,34.86
2023-05-06T10:19:06.531Z,34.89
2023-05-06T10:21:10.316Z,34.75
2023-05-06T10:23:12.182Z,35.05
2023-05-06T10:25:19.307Z,35.04
2023-05-06T10:27:23.646Z,34.88
2023-05-06T10:29:26.326Z,35.13
2023-05-06T10:31:30.025Z,34.98
2023-05-06T10:33:31.557Z,35.11
2023-05-06T10:35:42.451Z,35.83
2023-05-06T10:37:45.742Z,35.05
2023-05-06T10:39:47.421Z,35.18
2023-05-06T10:41:49.031Z,34.95
2023-05-06T10:43:56.849Z,35.01
2023-05-06T10:46:09.202Z,35.19
2023-05-06T10:48:10.909Z,35.43
2023-05-06T10:50:22.537Z,35.49
2023-05-06T10:52:24.019Z,35.34
2023-05-06T10:54:25.557Z,35.99
2023-05-06T10:56:27.180Z,35.85
2023-05-06T10:58:28.723Z,35.96
2023-05-06T11:00:33.107Z,35.38
2023-05-06T11:02:34.607Z,35.75
2023-05-06T11:04:37.531Z,35.99
2023-05-06T11:06:39.020Z,35.46
2023-05-06T11:08:40.522Z,35.43
2023-05-06T11:10:42.333Z,35.49
2023-05-06T11:12:45.136Z,35.35
2023-05-06T11:14:46.757Z,35.61
2023-05-06T11:16:49.903Z,35.76
2023-05-06T11:18:51.820Z,35.52
2023-05-06T11:21:05.510Z,35.78
2023-05-06T11:23:06.985Z,36.05
2023-05-06T11:25:08.400Z,35.85
2023-05-06T11:27:10.573Z,35.83
2023-05-06T11:29:12.099Z,35.52
2023-05-06T11:31:14.133Z,35.94
2023-05-06T11:33:18.784Z,35.50
2023-05-06T11:35:22.907Z,35.51
2023-05-06T11:37:28.313Z,35.62
2023-05-06T11:39:31.224Z,35.27
2023-05-06T11:41:32.673Z,35.10
2023-05-06T11:43:34.206Z,35.16
2023-05-06T11:45:42.352Z,34.98
2023-05-06T11:47:44.571Z,35.38
2023-05-06T11:49:46.012Z,34.62
2023-05-06T11:51:48.155Z,34.67
2023-05-06T11:53:49.722Z,34.48
2023-05-06T11:55:54.055Z,34.71
2023-05-06T11:57:55.595Z,35.49
2023-05-06T11:59:57.014Z,35.07
2023-05-06T12:01:59.446Z,35.00
2023-05-06T12:04:01.949Z,35.47
2023-05-06T12:06:03.653Z,35.36
2023-05-06T12:08:13.314Z,35.28
2023-05-06T12:10:21.468Z,35.03
2023-05-06T12:12:24.099Z,35.08
2023-05-06T12:14:25.665Z,35.31
2023-05-06T12:16:27.623Z,34.70
2023-05-06T12:18:29.830Z,35.32
2023-05-06T12:20:31.448Z,35.30
2023-05-06T12:22:32.904Z,34.82
2023-05-06T12:24:34.427Z,35.14
2023-05-06T12:26:43.229Z,34.86
2023-05-06T12:28:44.978Z,34.79
2023-05-06T12:30:46.452Z,34.74
2023-05-06T12:32:58.220Z,34.40
2023-05-06T12:35:05.409Z,34.33
2023-05-06T12:37:08.532Z,35.00
2023-05-06T12:39:11.776Z,35.12
2023-05-06T12:41:13.569Z,34.70
2023-05-06T12:43:15.240Z,34.97
2023-05-06T12:45:16.743Z,35.05
2023-05-06T12:47:22.399Z,34.50
2023-05-06T12:49:23.998Z,34.30
2023-05-06T12:51:28.944Z,34.32
2023-05-06T12:53:34.981Z,34.73
2023-05-06T12:55:37.493Z,34.86
2023-05-06T12:57:38.916Z,34.62
2023-05-06T12:59:40.879Z,34.46
2023-05-06T13:01:42.421Z,34.75
2023-05-06T13:03:44.204Z,34.99
2023-05-06T13:05:50.233Z,34.49
2023-05-06T13:07:51.898Z,34.86
2023-05-06T13:09:53.377Z,34.49
2023-05-06T13:11:55.197Z,34.54
2023-05-06T13:13:56.682Z,34.40
2023-05-06T13:15:58.450Z,34.68
2023-05-06T13:18:00.115Z,34.49
2023-05-06T13:20:03.268Z,35.02
2023-05-06T13:22:06.248Z,34.89
2023-05-06T13:24:08.570Z,34.62
2023-05-06T13:26:09.985Z,34.40
2023-05-06T13:28:11.437Z,34.54
2023-05-06T13:30:13.120Z,34.60
2023-05-06T13:32:14.797Z,34.11
2023-05-06T13:34:16.378Z,34.31
2023-05-06T13:36:17.820Z,34.37
2023-05-06T13:38:19.229Z,34.22
2023-05-06T13:40:20.679Z,34.35
2023-05-06T13:42:22.078Z,34.77
2023-05-06T13:44:24.523Z,34.82
2023-05-06T13:46:27.184Z,34.01
2023-05-06T13:48:28.756Z,33.99
2023-05-06T13:50:30.204Z,34.55
2023-05-06T13:52:31.768Z,34.25
2023-05-06T13:54:33.348Z,34.61
2023-05-06T13:56:34.946Z,34.71
2023-05-06T13:58:36.456Z,34.50
2023-05-06T14:00:38.055Z,34.13
2023-05-06T14:02:39.580Z,34.38
2023-05-06T14:04:41.147Z,34.44
2023-05-06T14:06:42.766Z,34.57
2023-05-06T14:08:44.212Z,34.81
2023-05-06T14:10:45.710Z,35.76
2023-05-06T14:12:47.418Z,34.69
2023-05-06T14:14:48.822Z,34.52
2023-05-06T14:16:53.399Z,34.36
2023-05-06T14:18:54.908Z,34.35
2023-05-06T14:20:56.849Z,34.20
2023-05-06T14:22:58.280Z,34.08
2023-05-06T14:24:59.888Z,34.65
2023-05-06T14:27:01.585Z,34.76
2023-05-06T14:29:03.736Z,34.66
2023-05-06T14:31:05.524Z,34.92
2023-05-06T14:33:07.202Z,35.54
2023-05-06T14:35:09.420Z,35.47
2023-05-06T14:37:11.062Z,35.28
2023-05-06T14:39:14.081Z,35.73
2023-05-06T14:41:15.772Z,35.04
2023-05-06T14:43:17.252Z,34.83
2023-05-06T14:45:18.961Z,35.08
2023-05-06T14:47:20.621Z,35.44
2023-05-06T14:49:22.532Z,35.77
2023-05-06T14:51:24.304Z,35.86
2023-05-06T14:53:25.898Z,35.85
2023-05-06T14:55:27.377Z,35.86
2023-05-06T14:57:28.871Z,35.13
2023-05-06T14:59:30.532Z,35.65
2023-05-06T15:01:33.586Z,35.56
2023-05-06T15:03:36.345Z,35.21
2023-05-06T15:05:37.982Z,35.17
2023-05-06T15:07:39.735Z,34.90
2023-05-06T15:09:43.888Z,35.09
2023-05-06T15:11:45.944Z,36.30
2023-05-06T15:13:47.568Z,36.00
2023-05-06T15:15:48.985Z,36.48
2023-05-06T15:17:52.291Z,36.75
2023-05-06T15:19:54.037Z,36.22
2023-05-06T15:21:55.994Z,35.99
2023-05-06T15:23:57.525Z,35.99
2023-05-06T15:25:59.104Z,35.88
2023-05-06T15:28:00.598Z,35.99
2023-05-06T15:30:04.394Z,35.65
2023-05-06T15:32:06.201Z,35.79
2023-05-06T15:34:09.139Z,35.74
2023-05-06T15:36:10.795Z,35.36
2023-05-06T15:38:12.214Z,35.69
2023-05-06T15:40:14.048Z,35.45
2023-05-06T15:42:18.464Z,35.70
2023-05-06T15:44:20.997Z,35.50
2023-05-06T15:46:22.947Z,35.66
2023-05-06T15:48:24.384Z,35.65
2023-05-06T15:52:33.003Z,35.93
2023-05-06T15:54:37.600Z,35.37
2023-05-06T15:56:41.402Z,36.28
2023-05-06T15:58:43.818Z,35.52
2023-05-06T16:00:45.461Z,35.56
2023-05-06T16:02:46.976Z,36.19
2023-05-06T16:04:48.673Z,36.60
2023-05-06T16:06:50.796Z,36.97
2023-05-06T16:08:52.248Z,36.89
2023-05-06T16:10:53.925Z,37.02
2023-05-06T16:12:55.600Z,37.37
2023-05-06T16:14:57.116Z,37.11
2023-05-06T16:16:58.864Z,37.02
2023-05-06T16:19:00.436Z,37.18
2023-05-06T16:21:01.984Z,37.65
2023-05-06T16:23:03.507Z,37.27
2023-05-06T16:25:05.174Z,37.75
2023-05-06T16:27:06.621Z,37.78
2023-05-06T16:29:08.101Z,37.39
2023-05-06T16:31:09.587Z,37.21
2023-05-06T16:33:12.023Z,37.59
2023-05-06T16:35:13.514Z,37.34
2023-05-06T16:37:15.427Z,37.71
2023-05-06T16:39:16.894Z,37.77
2023-05-06T16:41:18.398Z,37.50
2023-05-06T16:43:19.921Z,37.24
2023-05-06T16:45:21.501Z,37.85
2023-05-06T16:47:26.286Z,38.45
2023-05-06T16:49:28.422Z,38.48
2023-05-06T16:51:30.047Z,38.70
2023-05-06T16:53:31.532Z,39.08
2023-05-06T16:55:33.119Z,39.11
2023-05-06T16:57:34.628Z,39.18
2023-05-06T16:59:36.379Z,38.61
2023-05-06T17:01:37.918Z,39.46
2023-05-06T17:03:40.299Z,38.80
2023-05-06T17:05:42.060Z,39.39
2023-05-06T17:07:43.556Z,39.59
2023-05-06T17:09:45.057Z,39.44
2023-05-06T17:11:46.747Z,39.50
2023-05-06T17:13:48.287Z,39.70
2023-05-06T17:15:49.729Z,39.21
2023-05-06T17:17:51.557Z,39.47
2023-05-06T17:19:53.240Z,39.32
2023-05-06T17:21:54.708Z,39.55
2023-05-06T17:23:56.257Z,39.73
2023-05-06T17:25:57.872Z,39.45
2023-05-06T17:27:59.581Z,39.55
2023-05-06T17:30:01.584Z,38.79
2023-05-06T17:32:03.131Z,38.42
2023-05-06T17:34:04.798Z,39.04
2023-05-06T17:36:06.570Z,38.73
2023-05-06T17:38:08.316Z,37.92
2023-05-06T17:40:09.921Z,37.81
2023-05-06T17:42:11.408Z,38.62
2023-05-06T17:44:12.931Z,38.65
2023-05-06T17:46:14.553Z,37.50
2023-05-06T17:48:16.106Z,37.66
2023-05-06T17:50:17.543Z,37.67
2023-05-06T17:52:19.189Z,37.72
2023-05-06T17:54:20.616Z,37.68
2023-05-06T17:56:22.115Z,37.31
2023-05-06T17:58:23.700Z,37.52
2023-05-06T18:00:25.277Z,37.56
2023-05-06T18:02:26.771Z,37.96
2023-05-06T18:04:28.478Z,38.14
2023-05-06T18:06:29.963Z,38.61
2023-05-06T18:08:31.578Z,38.39
2023-05-06T18:10:33.076Z,38.60
2023-05-06T18:12:34.568Z,38.83
2023-05-06T18:14:36.035Z,39.18
2023-05-06T18:16:37.876Z,39.14
2023-05-06T18:18:39.485Z,39.43
2023-05-06T18:20:42.064Z,38.65
2023-05-06T18:22:43.814Z,39.33
2023-05-06T18:24:45.266Z,38.57
2023-05-06T18:26:46.717Z,38.40
2023-05-06T18:28:48.893Z,38.55
2023-05-06T18:30:50.780Z,38.52
2023-05-06T18:32:53.847Z,38.97
2023-05-06T18:34:57.072Z,37.93
2023-05-06T18:36:58.659Z,38.14
2023-05-06T18:39:04.500Z,38.11
2023-05-06T18:41:07.858Z,38.27
2023-05-06T18:43:09.327Z,38.79
2023-05-06T18:45:11.296Z,37.79
2023-05-06T18:47:13.232Z,37.78
2023-05-06T18:49:14.927Z,38.39
2023-05-06T18:51:17.356Z,38.88
2023-05-06T18:53:18.963Z,38.42
2023-05-06T18:55:20.488Z,37.49
2023-05-06T18:57:22.584Z,38.48
2023-05-06T18:59:24.484Z,38.66
2023-05-06T19:01:26.463Z,38.86
2023-05-06T19:03:28.329Z,38.75
2023-05-06T19:05:29.876Z,38.69
2023-05-06T19:07:31.294Z,38.62
2023-05-06T19:09:36.811Z,38.80
2023-05-06T19:11:38.691Z,38.31
2023-05-06T19:13:41.419Z,38.89
2023-05-06T19:15:42.874Z,38.89
2023-05-06T19:17:44.390Z,38.48
2023-05-06T19:19:48.460Z,38.73
2023-05-06T19:21:49.946Z,38.38
2023-05-06T19:23:51.497Z,38.40
2023-05-06T19:25:53.067Z,37.65
2023-05-06T19:27:54.864Z,37.28
2023-05-06T19:29:56.555Z,37.16
2023-05-06T19:31:58.650Z,36.91
2023-05-06T19:34:00.281Z,36.86
2023-05-06T19:36:01.761Z,36.92
2023-05-06T19:38:03.251Z,36.95
2023-05-06T19:40:05.099Z,37.25
2023-05-06T19:42:06.725Z,36.97
2023-05-06T19:44:08.251Z,37.02
2023-05-06T19:46:10.582Z,36.87
2023-05-06T19:48:14.473Z,36.83
2023-05-06T19:50:15.994Z,36.56
2023-05-06T19:52:17.616Z,36.51
2023-05-06T19:54:19.841Z,36.88
2023-05-06T19:56:21.563Z,36.33
2023-05-06T19:58:23.254Z,36.23
2023-05-06T20:00:27.237Z,36.14
2023-05-06T20:02:29.213Z,36.14
2023-05-06T20:04:30.937Z,36.03
2023-05-06T20:06:32.973Z,35.83
2023-05-06T20:08:35.159Z,35.86
2023-05-06T20:10:37.192Z,35.70
2023-05-06T20:12:38.876Z,36.08
2023-05-06T20:14:40.499Z,35.86
2023-05-06T20:16:42.057Z,35.74
2023-05-06T20:18:43.528Z,35.83
2023-05-06T20:20:45.048Z,35.97
2023-05-06T20:22:46.551Z,35.77
2023-05-06T20:24:48.174Z,35.61
2023-05-06T20:26:49.864Z,35.47
2023-05-06T20:28:53.111Z,35.64
2023-05-06T20:30:55.676Z,35.51
2023-05-06T20:32:57.250Z,35.29
2023-05-06T20:34:58.708Z,35.81
2023-05-06T20:37:01.244Z,35.44
2023-05-06T20:39:02.814Z,35.33
2023-05-06T20:41:04.441Z,35.38
2023-05-06T20:43:05.870Z,35.37
2023-05-06T20:45:07.712Z,35.57
2023-05-06T20:47:12.446Z,35.44
2023-05-06T20:49:13.946Z,35.51
2023-05-06T20:51:15.658Z,35.25
2023-05-06T20:53:17.341Z,35.36
2023-05-06T20:55:20.540Z,35.17
2023-05-06T20:57:22.197Z,35.41
2023-05-06T20:59:23.744Z,35.37
2023-05-06T21:01:25.854Z,35.20
2023-05-06T21:03:27.559Z,35.05
2023-05-06T21:05:29.181Z,35.37
2023-05-06T21:07:30.833Z,35.04
2023-05-06T21:09:32.430Z,35.23
2023-05-06T21:11:33.887Z,35.12
2023-05-06T21:13:35.427Z,35.11
2023-05-06T21:15:37.704Z,35.41
2023-05-06T21:17:39.237Z,35.39
2023-05-06T21:19:40.741Z,35.18
2023-05-06T21:21:42.287Z,35.64
2023-05-06T21:23:43.804Z,35.32
2023-05-06T21:25:45.528Z,35.15
2023-05-06T21:27:47.217Z,35.28
2023-05-06T21:29:48.692Z,35.03
2023-05-06T21:31:50.081Z,35.14
2023-05-06T21:33:54.088Z,35.17
2023-05-06T21:35:55.738Z,35.13
2023-05-06T21:37:57.659Z,35.48
2023-05-06T21:39:59.966Z,35.20
2023-05-06T21:42:01.604Z,35.06
2023-05-06T21:44:06.398Z,35.12
2023-05-06T21:46:08.010Z,35.22
2023-05-06T21:48:09.569Z,35.20
2023-05-06T21:50:11.524Z,35.36
2023-05-06T21:52:13.040Z,35.19
2023-05-06T21:54:14.898Z,35.27
2023-05-06T21:56:19.561Z,35.32
2023-05-06T21:58:21.136Z,35.35
2023-05-06T22:00:22.927Z,35.42
2023-05-06T22:02:24.688Z,35.28
2023-05-06T22:04:26.207Z,35.57
2023-05-06T22:06:27.626Z,35.80
2023-05-06T22:08:29.957Z,35.48
2023-05-06T22:10:31.438Z,35.36
2023-05-06T22:12:32.933Z,35.62
2023-05-06T22:14:41.073Z,35.88
2023-05-06T22:16:45.649Z,35.77
2023-05-06T22:18:47.423Z,35.74
2023-05-06T22:20:50.681Z,35.66
2023-05-06T22:22:52.376Z,35.95
2023-05-06T22:24:54.109Z,35.71
2023-05-06T22:26:56.119Z,36.24
2023-05-06T22:28:57.646Z,35.73
2023-05-06T22:30:59.177Z,35.88
2023-05-06T22:33:00.659Z,36.02
2023-05-06T22:35:02.150Z,36.34
2023-05-06T22:37:10.091Z,35.90
2023-05-06T22:39:11.565Z,36.01
2023-05-06T22:41:13.299Z,36.32
2023-05-06T22:43:14.784Z,36.29
2023-05-06T22:45:16.485Z,36.19
2023-05-06T22:47:19.736Z,36.28
2023-05-06T22:49:21.208Z,36.31
2023-05-06T22:51:22.653Z,36.64
2023-05-06T22:53:24.370Z,36.45
2023-05-06T22:55:26.162Z,36.57
2023-05-06T22:57:27.753Z,36.70
2023-05-06T22:59:29.496Z,36.67
2023-05-06T23:01:32.275Z,36.36
2023-05-06T23:03:34.003Z,36.56
2023-05-06T23:05:35.476Z,36.60
2023-05-06T23:07:36.885Z,36.62
2023-05-06T23:09:38.324Z,36.60
2023-05-06T23:11:40.112Z,36.54
2023-05-06T23:13:41.518Z,36.75
2023-05-06T23:15:42.954Z,36.70
2023-05-06T23:17:44.676Z,36.77
2023-05-06T23:19:46.286Z,36.97
2023-05-06T23:21:47.869Z,36.78
2023-05-06T23:23:49.338Z,36.87
2023-05-06T23:25:50.845Z,37.02
2023-05-06T23:27:52.313Z,37.05
2023-05-06T23:29:53.837Z,36.80
2023-05-06T23:31:55.312Z,37.08
2023-05-06T23:33:56.749Z,37.29
2023-05-06T23:36:02.433Z,36.95
2023-05-06T23:38:04.205Z,37.01
2023-05-06T23:40:06.116Z,37.19
2023-05-06T23:42:07.687Z,37.24
2023-05-06T23:44:09.130Z,37.28
2023-05-06T23:46:11.153Z,37.29
2023-05-06T23:48:12.799Z,37.19
2023-05-06T23:50:14.719Z,37.49
2023-05-06T23:52:16.577Z,37.35
2023-05-06T23:54:18.097Z,37.35
2023-05-06T23:56:20.499Z,37.63
2023-05-06T23:58:21.952Z,37.56
